Aviation Digital Data Service (ADDS)

Output produced by METARs form (1927 UTC 18 June 2019)
found at http://www.aviationweather.gov/metar/data/
 
EKYT 181920Z AUTO 25005KT 9999 FEW190/// 19/11 Q1013
TAF EKYT 181707Z 1818/1918 VRB05KT 9999 SCT050 SCT200 
     PROB40 1901/1905 0300 BCFG 
     BECMG 1909/1912 11012KT 
     TEMPO 1915/1918 13015G25KT 3000 TSRA SCT040CB
       
EKAH 181920Z AUTO 22001KT 9999NDV SCT083/// 21/16 Q1013
TAF EKAH 181703Z 1818/1918 VRB02KT 9999 FEW040 
     BECMG 1911/1913 12010KT
       
EKBI 181920Z AUTO 36002KT 9999 FEW190/// 19/13 Q1013
TAF EKBI 181703Z 1818/1918 VRB02KT 9999 FEW040 
     BECMG 1909/1912 12012KT 
     TEMPO 1914/1918 14015G25KT 2500 TSRA BKN040CB
       
EKRN 181920Z AUTO 10008KT 9999 NCD 18/14 Q1015
TAF EKRN 181738Z 1818/1822 12010KT CAVOK
       
EKEB 181920Z 30003KT CAVOK 18/13 Q1013
TAF EKEB 181738Z 1818/1822 25006KT 9999 FEW040
       
EKKA 181920Z AUTO 25003KT 9999 FEW180/// 19/13 Q1013
TAF EKKA 181707Z 1818/1918 VRB05KT 9999 FEW040 SCT200 
     PROB40 1902/1904 1200 MIFG 
     BECMG 1909/1912 12012KT 
     TEMPO 1915/1918 13015G25KT 2500 TSRA SCT040CB
       
EKCH 181920Z AUTO 14010KT 9999 SCT099/// 20/15 Q1014 NOSIG
TAF EKCH 181703Z 1818/1918 14010KT CAVOK
       
EKVD 181920Z AUTO 32003KT //// ///////// 19/15 Q1013
TAF EKVD 181154Z 1812/1816 18008KT 9999 FEW040 
     TEMPO 1812/1816 4000 SHRA SCT040CB 
     PROB40 
     TEMPO 1812/1816 TSRA
       
EKOD 181710Z VRB01KT 4000 SHRA TSRA SCT033TCU BKN055 21/20 Q1014
TAF EKOD 181154Z 1812/1817 17007KT 9999 FEW040 
     TEMPO 1812/1817 4000 SHRA SCT040CB 
     PROB40 
     TEMPO 1812/1817 TSRA
       
EKRK 181920Z AUTO 12006KT 9999 BKN081/// BKN150/// 18/15 Q1014
TAF EKRK 181738Z 1818/1903 15012KT 9999 FEW040 
     PROB40 1820/1824 TSRA SCT040CB
       
EKSN 181350Z VRB03KT 9999 FEW032 BKN055 22/17 Q1014
TAF EKSN 180857Z 1809/1815 16008KT 9999 FEW040 
     TEMPO 1809/1815 4000 SHRA SCT040CB 
     PROB40 
     TEMPO 1809/1815 VRB15G30KT +TSRA
       
EKSP 181920Z 28004KT 9999 FEW040 19/14 Q1013
TAF EKSP 181707Z 1818/1918 VRB05KT 9999 FEW040 SCT200 
     BECMG 1909/1912 13012KT 
     TEMPO 1914/1918 13015G25KT 2500 TSRA SCT040CB
       
EKSB 181920Z 14004KT CAVOK 19/17 Q1013
TAF EKSB 181759Z 1818/1822 13008KT 9999 FEW040 
     TEMPO 1818/1819 VRB10G20KT -TSRA SCT025CB
       
EKVJ 181350Z 27009KT 9999 FEW040TCU SCT250 21/15 Q1014
TAF EKVJ 180857Z 1809/1815 16008KT 9999 FEW040 
     TEMPO 1812/1815 FEW040CB